sensor_id;sensor_type;location;lat;lon;timestamp;P1;durP1;ratioP1;P2;durP2;ratioP2
50301;SDS011;36550;50.472;19.744;2022-09-24T00:02:11;24.52;;;12.93;;
50301;SDS011;36550;50.472;19.744;2022-09-24T00:04:56;23.32;;;13.08;;
50301;SDS011;36550;50.472;19.744;2022-09-24T00:07:40;27.90;;;13.10;;
50301;SDS011;36550;50.472;19.744;2022-09-24T00:10:24;26.12;;;11.78;;
50301;SDS011;36550;50.472;19.744;2022-09-24T00:13:09;26.20;;;11.90;;
50301;SDS011;36550;50.472;19.744;2022-09-24T00:16:00;22.70;;;11.18;;
50301;SDS011;36550;50.472;19.744;2022-09-24T00:18:49;21.27;;;11.57;;
50301;SDS011;36550;50.472;19.744;2022-09-24T00:21:34;22.85;;;12.20;;
50301;SDS011;36550;50.472;19.744;2022-09-24T00:27:22;25.40;;;12.13;;
50301;SDS011;36550;50.472;19.744;2022-09-24T00:30:07;23.40;;;11.70;;
50301;SDS011;36550;50.472;19.744;2022-09-24T00:32:52;21.48;;;12.35;;
50301;SDS011;36550;50.472;19.744;2022-09-24T00:35:36;22.93;;;11.03;;
50301;SDS011;36550;50.472;19.744;2022-09-24T00:38:23;22.30;;;10.32;;
50301;SDS011;36550;50.472;19.744;2022-09-24T00:41:08;20.72;;;10.98;;
50301;SDS011;36550;50.472;19.744;2022-09-24T00:43:52;23.70;;;11.83;;
50301;SDS011;36550;50.472;19.744;2022-09-24T00:49:26;27.10;;;13.80;;
50301;SDS011;36550;50.472;19.744;2022-09-24T00:52:11;26.20;;;13.85;;
50301;SDS011;36550;50.472;19.744;2022-09-24T00:54:55;27.52;;;14.15;;
50301;SDS011;36550;50.472;19.744;2022-09-24T00:57:39;30.25;;;14.35;;
50301;SDS011;36550;50.472;19.744;2022-09-24T01:00:25;27.55;;;13.70;;
50301;SDS011;36550;50.472;19.744;2022-09-24T01:03:11;21.42;;;11.48;;
50301;SDS011;36550;50.472;19.744;2022-09-24T01:06:06;24.37;;;12.73;;
50301;SDS011;36550;50.472;19.744;2022-09-24T01:08:54;25.30;;;12.55;;
50301;SDS011;36550;50.472;19.744;2022-09-24T01:17:38;26.33;;;13.30;;
50301;SDS011;36550;50.472;19.744;2022-09-24T01:20:29;28.67;;;13.75;;
50301;SDS011;36550;50.472;19.744;2022-09-24T01:32:49;28.90;;;14.23;;
50301;SDS011;36550;50.472;19.744;2022-09-24T01:35:37;19.70;;;10.78;;
50301;SDS011;36550;50.472;19.744;2022-09-24T01:38:26;20.95;;;10.38;;
50301;SDS011;36550;50.472;19.744;2022-09-24T01:41:17;21.05;;;10.15;;
50301;SDS011;36550;50.472;19.744;2022-09-24T01:44:02;22.58;;;10.20;;
50301;SDS011;36550;50.472;19.744;2022-09-24T01:46:49;22.13;;;10.50;;
50301;SDS011;36550;50.472;19.744;2022-09-24T01:49:34;18.95;;;10.45;;
50301;SDS011;36550;50.472;19.744;2022-09-24T01:52:20;20.10;;;10.78;;
50301;SDS011;36550;50.472;19.744;2022-09-24T01:55:10;21.52;;;10.70;;
50301;SDS011;36550;50.472;19.744;2022-09-24T01:58:03;20.17;;;10.53;;
50301;SDS011;36550;50.472;19.744;2022-09-24T02:00:56;20.17;;;11.30;;
50301;SDS011;36550;50.472;19.744;2022-09-24T02:03:44;18.62;;;10.18;;
50301;SDS011;36550;50.472;19.744;2022-09-24T02:06:39;15.85;;;8.30;;
50301;SDS011;36550;50.472;19.744;2022-09-24T02:12:26;17.12;;;8.90;;
50301;SDS011;36550;50.472;19.744;2022-09-24T02:15:18;14.18;;;7.92;;
50301;SDS011;36550;50.472;19.744;2022-09-24T02:18:13;18.92;;;9.18;;
50301;SDS011;36550;50.472;19.744;2022-09-24T02:20:56;16.40;;;8.63;;
50301;SDS011;36550;50.472;19.744;2022-09-24T02:23:44;16.82;;;9.28;;
50301;SDS011;36550;50.472;19.744;2022-09-24T02:26:42;21.23;;;9.78;;
50301;SDS011;36550;50.472;19.744;2022-09-24T02:29:26;16.17;;;8.68;;
50301;SDS011;36550;50.472;19.744;2022-09-24T02:32:12;16.82;;;9.23;;
50301;SDS011;36550;50.472;19.744;2022-09-24T02:35:00;18.30;;;9.95;;
50301;SDS011;36550;50.472;19.744;2022-09-24T02:37:48;18.32;;;8.95;;
50301;SDS011;36550;50.472;19.744;2022-09-24T02:40:32;15.85;;;9.28;;
50301;SDS011;36550;50.472;19.744;2022-09-24T02:43:16;20.25;;;9.00;;
50301;SDS011;36550;50.472;19.744;2022-09-24T02:46:01;16.15;;;8.83;;
50301;SDS011;36550;50.472;19.744;2022-09-24T02:48:45;15.23;;;9.28;;
50301;SDS011;36550;50.472;19.744;2022-09-24T02:51:30;17.23;;;9.98;;
50301;SDS011;36550;50.472;19.744;2022-09-24T02:54:14;22.02;;;11.90;;
50301;SDS011;36550;50.472;19.744;2022-09-24T02:56:58;21.95;;;11.63;;
50301;SDS011;36550;50.472;19.744;2022-09-24T02:59:43;20.10;;;11.03;;
50301;SDS011;36550;50.472;19.744;2022-09-24T03:02:28;16.20;;;10.05;;
50301;SDS011;36550;50.472;19.744;2022-09-24T03:05:13;18.87;;;11.12;;
50301;SDS011;36550;50.472;19.744;2022-09-24T03:08:00;17.65;;;10.48;;
50301;SDS011;36550;50.472;19.744;2022-09-24T03:10:45;16.30;;;9.33;;
50301;SDS011;36550;50.472;19.744;2022-09-24T03:13:29;16.48;;;9.70;;
50301;SDS011;36550;50.472;19.744;2022-09-24T03:16:14;17.32;;;10.20;;
50301;SDS011;36550;50.472;19.744;2022-09-24T03:18:59;17.52;;;10.20;;
50301;SDS011;36550;50.472;19.744;2022-09-24T03:21:43;12.60;;;8.05;;
50301;SDS011;36550;50.472;19.744;2022-09-24T03:24:27;17.55;;;11.03;;
50301;SDS011;36550;50.472;19.744;2022-09-24T03:27:12;16.52;;;9.80;;
50301;SDS011;36550;50.472;19.744;2022-09-24T03:29:56;14.65;;;9.28;;
50301;SDS011;36550;50.472;19.744;2022-09-24T03:32:58;19.23;;;11.00;;
50301;SDS011;36550;50.472;19.744;2022-09-24T03:35:42;20.82;;;11.57;;
50301;SDS011;36550;50.472;19.744;2022-09-24T03:38:27;14.30;;;8.48;;
50301;SDS011;36550;50.472;19.744;2022-09-24T03:41:12;12.43;;;8.00;;
50301;SDS011;36550;50.472;19.744;2022-09-24T03:43:57;14.53;;;9.58;;
50301;SDS011;36550;50.472;19.744;2022-09-24T03:46:42;17.65;;;10.63;;
50301;SDS011;36550;50.472;19.744;2022-09-24T03:49:26;16.48;;;9.53;;
50301;SDS011;36550;50.472;19.744;2022-09-24T03:52:10;16.87;;;9.25;;
50301;SDS011;36550;50.472;19.744;2022-09-24T03:54:55;13.60;;;9.18;;
50301;SDS011;36550;50.472;19.744;2022-09-24T03:57:39;17.67;;;10.48;;
50301;SDS011;36550;50.472;19.744;2022-09-24T04:00:24;18.60;;;10.82;;
50301;SDS011;36550;50.472;19.744;2022-09-24T04:03:08;25.90;;;12.45;;
50301;SDS011;36550;50.472;19.744;2022-09-24T04:05:52;20.20;;;11.90;;
50301;SDS011;36550;50.472;19.744;2022-09-24T04:08:37;19.17;;;10.20;;
50301;SDS011;36550;50.472;19.744;2022-09-24T04:11:21;17.85;;;10.98;;
50301;SDS011;36550;50.472;19.744;2022-09-24T04:14:06;17.27;;;10.40;;
50301;SDS011;36550;50.472;19.744;2022-09-24T04:16:51;19.85;;;11.18;;
50301;SDS011;36550;50.472;19.744;2022-09-24T04:19:36;22.17;;;12.53;;
50301;SDS011;36550;50.472;19.744;2022-09-24T04:22:22;22.00;;;11.97;;
50301;SDS011;36550;50.472;19.744;2022-09-24T04:25:07;19.02;;;11.70;;
50301;SDS011;36550;50.472;19.744;2022-09-24T04:27:59;21.20;;;12.03;;
50301;SDS011;36550;50.472;19.744;2022-09-24T04:30:44;17.02;;;10.13;;
50301;SDS011;36550;50.472;19.744;2022-09-24T04:33:28;18.20;;;10.80;;
50301;SDS011;36550;50.472;19.744;2022-09-24T04:36:12;19.55;;;10.60;;
50301;SDS011;36550;50.472;19.744;2022-09-24T04:38:57;17.77;;;10.43;;
50301;SDS011;36550;50.472;19.744;2022-09-24T04:41:41;18.17;;;10.88;;
50301;SDS011;36550;50.472;19.744;2022-09-24T04:44:25;21.85;;;10.80;;
50301;SDS011;36550;50.472;19.744;2022-09-24T04:47:12;20.75;;;10.88;;
50301;SDS011;36550;50.472;19.744;2022-09-24T04:49:57;18.02;;;10.90;;
50301;SDS011;36550;50.472;19.744;2022-09-24T04:52:44;20.32;;;11.18;;
50301;SDS011;36550;50.472;19.744;2022-09-24T04:55:28;21.55;;;10.93;;
50301;SDS011;36550;50.472;19.744;2022-09-24T04:58:15;17.75;;;11.05;;
50301;SDS011;36550;50.472;19.744;2022-09-24T05:01:00;17.27;;;10.50;;
50301;SDS011;36550;50.472;19.744;2022-09-24T05:03:46;23.45;;;10.48;;
50301;SDS011;36550;50.472;19.744;2022-09-24T05:06:31;16.50;;;10.00;;
50301;SDS011;36550;50.472;19.744;2022-09-24T05:09:15;15.93;;;9.23;;
50301;SDS011;36550;50.472;19.744;2022-09-24T05:12:00;16.67;;;9.80;;
50301;SDS011;36550;50.472;19.744;2022-09-24T05:14:45;18.60;;;10.17;;
50301;SDS011;36550;50.472;19.744;2022-09-24T05:17:29;15.60;;;10.05;;
50301;SDS011;36550;50.472;19.744;2022-09-24T05:20:14;17.70;;;10.68;;
50301;SDS011;36550;50.472;19.744;2022-09-24T05:23:02;23.77;;;10.75;;
50301;SDS011;36550;50.472;19.744;2022-09-24T05:25:46;19.05;;;10.70;;
50301;SDS011;36550;50.472;19.744;2022-09-24T05:28:38;20.08;;;10.90;;
50301;SDS011;36550;50.472;19.744;2022-09-24T05:31:23;16.73;;;9.65;;
50301;SDS011;36550;50.472;19.744;2022-09-24T05:34:07;22.62;;;9.83;;
50301;SDS011;36550;50.472;19.744;2022-09-24T05:36:51;21.65;;;10.90;;
50301;SDS011;36550;50.472;19.744;2022-09-24T05:39:36;22.27;;;11.50;;
50301;SDS011;36550;50.472;19.744;2022-09-24T05:42:20;25.25;;;12.90;;
50301;SDS011;36550;50.472;19.744;2022-09-24T05:45:04;18.98;;;12.78;;
50301;SDS011;36550;50.472;19.744;2022-09-24T05:47:49;20.80;;;13.18;;
50301;SDS011;36550;50.472;19.744;2022-09-24T05:50:33;21.97;;;14.73;;
50301;SDS011;36550;50.472;19.744;2022-09-24T05:53:17;20.08;;;12.63;;
50301;SDS011;36550;50.472;19.744;2022-09-24T05:56:02;21.07;;;12.85;;
50301;SDS011;36550;50.472;19.744;2022-09-24T05:58:49;19.32;;;11.65;;
50301;SDS011;36550;50.472;19.744;2022-09-24T06:01:33;20.68;;;11.30;;
50301;SDS011;36550;50.472;19.744;2022-09-24T06:04:17;21.80;;;13.03;;
50301;SDS011;36550;50.472;19.744;2022-09-24T06:07:01;24.77;;;13.80;;
50301;SDS011;36550;50.472;19.744;2022-09-24T06:09:46;23.60;;;13.43;;
50301;SDS011;36550;50.472;19.744;2022-09-24T06:12:31;30.10;;;14.37;;
50301;SDS011;36550;50.472;19.744;2022-09-24T06:15:19;26.10;;;14.55;;
50301;SDS011;36550;50.472;19.744;2022-09-24T06:18:04;24.98;;;13.35;;
50301;SDS011;36550;50.472;19.744;2022-09-24T06:20:48;23.62;;;10.93;;
50301;SDS011;36550;50.472;19.744;2022-09-24T06:23:36;17.67;;;10.80;;
50301;SDS011;36550;50.472;19.744;2022-09-24T06:26:21;17.57;;;11.28;;
50301;SDS011;36550;50.472;19.744;2022-09-24T06:29:05;20.82;;;11.90;;
50301;SDS011;36550;50.472;19.744;2022-09-24T06:31:50;20.55;;;12.13;;
50301;SDS011;36550;50.472;19.744;2022-09-24T06:34:35;18.05;;;11.38;;
50301;SDS011;36550;50.472;19.744;2022-09-24T06:37:20;19.00;;;12.18;;
50301;SDS011;36550;50.472;19.744;2022-09-24T06:40:05;19.85;;;11.80;;
50301;SDS011;36550;50.472;19.744;2022-09-24T06:42:51;16.23;;;10.98;;
50301;SDS011;36550;50.472;19.744;2022-09-24T06:45:36;17.98;;;11.25;;
50301;SDS011;36550;50.472;19.744;2022-09-24T06:48:21;16.13;;;9.80;;
50301;SDS011;36550;50.472;19.744;2022-09-24T06:51:05;16.77;;;10.53;;
50301;SDS011;36550;50.472;19.744;2022-09-24T06:53:50;17.57;;;11.63;;
50301;SDS011;36550;50.472;19.744;2022-09-24T06:56:35;19.00;;;12.63;;
50301;SDS011;36550;50.472;19.744;2022-09-24T06:59:19;20.90;;;14.25;;
50301;SDS011;36550;50.472;19.744;2022-09-24T07:02:03;28.57;;;14.43;;
50301;SDS011;36550;50.472;19.744;2022-09-24T07:04:47;25.62;;;14.43;;
50301;SDS011;36550;50.472;19.744;2022-09-24T07:07:32;19.62;;;11.80;;
50301;SDS011;36550;50.472;19.744;2022-09-24T07:10:16;22.82;;;14.70;;
50301;SDS011;36550;50.472;19.744;2022-09-24T07:13:01;20.23;;;13.32;;
50301;SDS011;36550;50.472;19.744;2022-09-24T07:15:45;19.42;;;12.60;;
50301;SDS011;36550;50.472;19.744;2022-09-24T07:18:32;16.48;;;9.93;;
50301;SDS011;36550;50.472;19.744;2022-09-24T07:21:16;13.00;;;7.97;;
50301;SDS011;36550;50.472;19.744;2022-09-24T07:24:01;11.33;;;6.97;;
50301;SDS011;36550;50.472;19.744;2022-09-24T07:26:46;12.20;;;7.67;;
50301;SDS011;36550;50.472;19.744;2022-09-24T07:29:30;10.88;;;7.75;;
50301;SDS011;36550;50.472;19.744;2022-09-24T07:32:15;10.78;;;8.10;;
50301;SDS011;36550;50.472;19.744;2022-09-24T07:35:00;15.27;;;8.27;;
50301;SDS011;36550;50.472;19.744;2022-09-24T07:37:44;13.43;;;7.80;;
50301;SDS011;36550;50.472;19.744;2022-09-24T07:40:29;9.88;;;5.92;;
50301;SDS011;36550;50.472;19.744;2022-09-24T07:43:14;8.45;;;5.35;;
50301;SDS011;36550;50.472;19.744;2022-09-24T07:45:58;8.13;;;5.10;;
50301;SDS011;36550;50.472;19.744;2022-09-24T07:48:43;9.85;;;5.28;;
50301;SDS011;36550;50.472;19.744;2022-09-24T07:51:27;8.60;;;5.28;;
50301;SDS011;36550;50.472;19.744;2022-09-24T07:54:12;7.47;;;5.72;;
50301;SDS011;36550;50.472;19.744;2022-09-24T07:56:56;9.35;;;6.33;;
50301;SDS011;36550;50.472;19.744;2022-09-24T07:59:41;9.65;;;6.00;;
50301;SDS011;36550;50.472;19.744;2022-09-24T08:02:27;6.70;;;5.12;;
50301;SDS011;36550;50.472;19.744;2022-09-24T08:05:12;10.38;;;4.78;;
50301;SDS011;36550;50.472;19.744;2022-09-24T08:07:59;13.78;;;4.90;;
50301;SDS011;36550;50.472;19.744;2022-09-24T08:10:44;6.80;;;5.08;;
50301;SDS011;36550;50.472;19.744;2022-09-24T08:13:28;6.80;;;4.70;;
50301;SDS011;36550;50.472;19.744;2022-09-24T08:16:12;10.88;;;5.30;;
50301;SDS011;36550;50.472;19.744;2022-09-24T08:18:57;9.20;;;6.03;;
50301;SDS011;36550;50.472;19.744;2022-09-24T08:21:41;10.38;;;5.40;;
50301;SDS011;36550;50.472;19.744;2022-09-24T08:24:26;7.28;;;4.67;;
50301;SDS011;36550;50.472;19.744;2022-09-24T08:27:10;8.55;;;4.60;;
50301;SDS011;36550;50.472;19.744;2022-09-24T08:29:54;7.50;;;5.10;;
50301;SDS011;36550;50.472;19.744;2022-09-24T08:32:44;8.03;;;4.70;;
50301;SDS011;36550;50.472;19.744;2022-09-24T08:35:32;7.80;;;4.78;;
50301;SDS011;36550;50.472;19.744;2022-09-24T08:46:48;6.62;;;4.45;;
50301;SDS011;36550;50.472;19.744;2022-09-24T08:49:55;8.53;;;4.83;;
50301;SDS011;36550;50.472;19.744;2022-09-24T08:53:02;11.70;;;5.08;;
50301;SDS011;36550;50.472;19.744;2022-09-24T08:55:58;8.68;;;5.70;;
50301;SDS011;36550;50.472;19.744;2022-09-24T08:58:45;7.65;;;4.72;;
50301;SDS011;36550;50.472;19.744;2022-09-24T09:01:57;7.25;;;4.67;;
50301;SDS011;36550;50.472;19.744;2022-09-24T09:05:06;7.83;;;4.33;;
50301;SDS011;36550;50.472;19.744;2022-09-24T09:08:22;8.93;;;4.97;;
50301;SDS011;36550;50.472;19.744;2022-09-24T09:11:27;7.17;;;4.62;;
50301;SDS011;36550;50.472;19.744;2022-09-24T09:14:16;7.28;;;5.25;;
50301;SDS011;36550;50.472;19.744;2022-09-24T09:23:33;5.87;;;3.37;;
50301;SDS011;36550;50.472;19.744;2022-09-24T09:26:20;6.50;;;3.05;;
50301;SDS011;36550;50.472;19.744;2022-09-24T09:29:07;7.12;;;3.17;;
50301;SDS011;36550;50.472;19.744;2022-09-24T09:44:25;5.92;;;2.90;;
50301;SDS011;36550;50.472;19.744;2022-09-24T09:47:33;10.13;;;8.90;;
50301;SDS011;36550;50.472;19.744;2022-09-24T09:53:27;45.08;;;40.45;;
50301;SDS011;36550;50.472;19.744;2022-09-24T09:56:16;5.45;;;4.15;;
50301;SDS011;36550;50.472;19.744;2022-09-24T09:59:06;4.47;;;3.10;;
50301;SDS011;36550;50.472;19.744;2022-09-24T10:01:57;4.45;;;2.70;;
50301;SDS011;36550;50.472;19.744;2022-09-24T10:04:42;5.42;;;2.80;;
50301;SDS011;36550;50.472;19.744;2022-09-24T10:07:26;8.48;;;4.70;;
50301;SDS011;36550;50.472;19.744;2022-09-24T10:10:17;7.80;;;3.02;;
50301;SDS011;36550;50.472;19.744;2022-09-24T10:13:08;3.98;;;2.70;;
50301;SDS011;36550;50.472;19.744;2022-09-24T10:15:55;3.83;;;2.83;;
50301;SDS011;36550;50.472;19.744;2022-09-24T10:18:47;6.37;;;2.40;;
50301;SDS011;36550;50.472;19.744;2022-09-24T10:21:34;4.53;;;2.77;;
50301;SDS011;36550;50.472;19.744;2022-09-24T10:24:21;18.65;;;11.38;;
50301;SDS011;36550;50.472;19.744;2022-09-24T10:27:11;51.08;;;36.60;;
50301;SDS011;36550;50.472;19.744;2022-09-24T10:30:00;7.08;;;4.62;;
50301;SDS011;36550;50.472;19.744;2022-09-24T10:33:06;8.23;;;5.42;;
50301;SDS011;36550;50.472;19.744;2022-09-24T10:36:00;11.22;;;9.00;;
50301;SDS011;36550;50.472;19.744;2022-09-24T10:39:00;11.05;;;9.00;;
50301;SDS011;36550;50.472;19.744;2022-09-24T10:41:57;9.65;;;4.95;;
50301;SDS011;36550;50.472;19.744;2022-09-24T10:44:41;6.25;;;5.28;;
50301;SDS011;36550;50.472;19.744;2022-09-24T10:47:28;4.72;;;3.50;;
50301;SDS011;36550;50.472;19.744;2022-09-24T10:50:31;6.40;;;4.35;;
50301;SDS011;36550;50.472;19.744;2022-09-24T10:53:28;11.73;;;9.00;;
50301;SDS011;36550;50.472;19.744;2022-09-24T10:59:39;6.65;;;4.55;;
50301;SDS011;36550;50.472;19.744;2022-09-24T11:02:56;7.90;;;3.77;;
50301;SDS011;36550;50.472;19.744;2022-09-24T11:05:53;5.67;;;3.60;;
50301;SDS011;36550;50.472;19.744;2022-09-24T11:09:05;7.58;;;4.58;;
50301;SDS011;36550;50.472;19.744;2022-09-24T11:18:19;6.17;;;3.50;;
50301;SDS011;36550;50.472;19.744;2022-09-24T11:28:11;5.87;;;2.85;;
50301;SDS011;36550;50.472;19.744;2022-09-24T11:31:06;4.42;;;2.60;;
50301;SDS011;36550;50.472;19.744;2022-09-24T11:53:57;9.83;;;4.45;;
50301;SDS011;36550;50.472;19.744;2022-09-24T11:56:46;5.53;;;3.50;;
50301;SDS011;36550;50.472;19.744;2022-09-24T11:59:40;4.78;;;2.52;;
50301;SDS011;36550;50.472;19.744;2022-09-24T12:02:58;5.05;;;2.40;;
50301;SDS011;36550;50.472;19.744;2022-09-24T12:06:00;3.02;;;2.10;;
50301;SDS011;36550;50.472;19.744;2022-09-24T12:08:55;3.75;;;2.30;;
50301;SDS011;36550;50.472;19.744;2022-09-24T12:11:54;4.22;;;2.20;;
50301;SDS011;36550;50.472;19.744;2022-09-24T12:14:50;5.55;;;2.67;;
50301;SDS011;36550;50.472;19.744;2022-09-24T12:17:53;8.73;;;2.55;;
50301;SDS011;36550;50.472;19.744;2022-09-24T12:23:45;6.17;;;2.60;;
50301;SDS011;36550;50.472;19.744;2022-09-24T12:26:34;5.50;;;2.30;;
50301;SDS011;36550;50.472;19.744;2022-09-24T12:39:13;7.95;;;2.70;;
50301;SDS011;36550;50.472;19.744;2022-09-24T12:42:02;4.90;;;2.30;;
50301;SDS011;36550;50.472;19.744;2022-09-24T12:44:50;3.87;;;2.20;;
50301;SDS011;36550;50.472;19.744;2022-09-24T12:47:51;4.53;;;1.90;;
50301;SDS011;36550;50.472;19.744;2022-09-24T12:50:33;3.33;;;2.00;;
50301;SDS011;36550;50.472;19.744;2022-09-24T12:53:21;5.62;;;1.90;;
50301;SDS011;36550;50.472;19.744;2022-09-24T12:56:08;3.85;;;1.82;;
50301;SDS011;36550;50.472;19.744;2022-09-24T12:58:54;3.27;;;2.00;;
50301;SDS011;36550;50.472;19.744;2022-09-24T13:01:39;4.83;;;2.20;;
50301;SDS011;36550;50.472;19.744;2022-09-24T13:04:26;3.87;;;2.12;;
50301;SDS011;36550;50.472;19.744;2022-09-24T13:07:31;3.70;;;2.20;;
50301;SDS011;36550;50.472;19.744;2022-09-24T13:13:22;4.80;;;2.60;;
50301;SDS011;36550;50.472;19.744;2022-09-24T13:16:15;5.53;;;2.27;;
50301;SDS011;36550;50.472;19.744;2022-09-24T13:19:02;4.08;;;1.80;;
50301;SDS011;36550;50.472;19.744;2022-09-24T13:21:52;3.17;;;2.10;;
50301;SDS011;36550;50.472;19.744;2022-09-24T13:24:51;3.55;;;2.20;;
50301;SDS011;36550;50.472;19.744;2022-09-24T13:27:36;5.50;;;3.12;;
50301;SDS011;36550;50.472;19.744;2022-09-24T13:33:27;4.53;;;3.40;;
50301;SDS011;36550;50.472;19.744;2022-09-24T13:42:22;5.30;;;3.35;;
50301;SDS011;36550;50.472;19.744;2022-09-24T13:45:21;9.60;;;3.55;;
50301;SDS011;36550;50.472;19.744;2022-09-24T13:48:16;6.72;;;3.72;;
50301;SDS011;36550;50.472;19.744;2022-09-24T13:51:03;10.45;;;2.75;;
50301;SDS011;36550;50.472;19.744;2022-09-24T13:53:54;5.08;;;2.90;;
50301;SDS011;36550;50.472;19.744;2022-09-24T13:57:01;6.08;;;3.10;;
50301;SDS011;36550;50.472;19.744;2022-09-24T14:00:12;8.30;;;3.27;;
50301;SDS011;36550;50.472;19.744;2022-09-24T14:03:50;5.42;;;3.00;;
50301;SDS011;36550;50.472;19.744;2022-09-24T14:06:12;9.55;;;3.40;;
50301;SDS011;36550;50.472;19.744;2022-09-24T14:08:59;14.90;;;3.92;;
50301;SDS011;36550;50.472;19.744;2022-09-24T14:11:47;34.37;;;19.27;;
50301;SDS011;36550;50.472;19.744;2022-09-24T14:14:33;10.43;;;5.85;;
50301;SDS011;36550;50.472;19.744;2022-09-24T14:17:18;8.35;;;5.67;;
50301;SDS011;36550;50.472;19.744;2022-09-24T14:20:03;6.05;;;3.25;;
50301;SDS011;36550;50.472;19.744;2022-09-24T14:22:48;3.47;;;2.60;;
50301;SDS011;36550;50.472;19.744;2022-09-24T14:25:33;5.37;;;3.00;;
50301;SDS011;36550;50.472;19.744;2022-09-24T14:28:20;5.97;;;2.50;;
50301;SDS011;36550;50.472;19.744;2022-09-24T14:31:05;5.75;;;3.05;;
50301;SDS011;36550;50.472;19.744;2022-09-24T14:33:51;6.20;;;4.15;;
50301;SDS011;36550;50.472;19.744;2022-09-24T14:36:35;18.95;;;9.05;;
50301;SDS011;36550;50.472;19.744;2022-09-24T14:39:20;10.03;;;4.10;;
50301;SDS011;36550;50.472;19.744;2022-09-24T14:42:12;5.60;;;2.85;;
50301;SDS011;36550;50.472;19.744;2022-09-24T14:45:22;5.03;;;2.70;;
50301;SDS011;36550;50.472;19.744;2022-09-24T14:48:30;10.88;;;7.55;;
50301;SDS011;36550;50.472;19.744;2022-09-24T14:51:29;10.60;;;7.45;;
50301;SDS011;36550;50.472;19.744;2022-09-24T14:57:25;6.55;;;3.33;;
50301;SDS011;36550;50.472;19.744;2022-09-24T15:03:11;22.77;;;14.28;;
50301;SDS011;36550;50.472;19.744;2022-09-24T15:06:33;30.45;;;19.07;;
50301;SDS011;36550;50.472;19.744;2022-09-24T15:12:17;19.12;;;10.28;;
50301;SDS011;36550;50.472;19.744;2022-09-24T15:15:03;15.50;;;9.45;;
50301;SDS011;36550;50.472;19.744;2022-09-24T15:18:04;15.88;;;9.73;;
50301;SDS011;36550;50.472;19.744;2022-09-24T15:20:53;16.73;;;9.55;;
50301;SDS011;36550;50.472;19.744;2022-09-24T15:23:39;12.93;;;7.30;;
50301;SDS011;36550;50.472;19.744;2022-09-24T15:26:28;12.73;;;7.58;;
50301;SDS011;36550;50.472;19.744;2022-09-24T15:29:18;31.25;;;17.60;;
50301;SDS011;36550;50.472;19.744;2022-09-24T15:32:14;29.30;;;18.02;;
50301;SDS011;36550;50.472;19.744;2022-09-24T15:34:59;27.17;;;14.50;;
50301;SDS011;36550;50.472;19.744;2022-09-24T15:37:44;16.57;;;9.60;;
50301;SDS011;36550;50.472;19.744;2022-09-24T15:40:31;11.05;;;6.85;;
50301;SDS011;36550;50.472;19.744;2022-09-24T15:43:22;10.23;;;5.95;;
50301;SDS011;36550;50.472;19.744;2022-09-24T15:46:07;10.15;;;6.10;;
50301;SDS011;36550;50.472;19.744;2022-09-24T15:48:51;13.93;;;8.88;;
50301;SDS011;36550;50.472;19.744;2022-09-24T15:51:36;20.23;;;9.93;;
50301;SDS011;36550;50.472;19.744;2022-09-24T15:54:22;9.60;;;6.75;;
50301;SDS011;36550;50.472;19.744;2022-09-24T15:57:09;15.95;;;10.58;;
50301;SDS011;36550;50.472;19.744;2022-09-24T15:59:55;11.85;;;7.70;;
50301;SDS011;36550;50.472;19.744;2022-09-24T16:02:39;16.02;;;8.98;;
50301;SDS011;36550;50.472;19.744;2022-09-24T16:05:26;24.02;;;12.78;;
50301;SDS011;36550;50.472;19.744;2022-09-24T16:08:10;31.97;;;17.80;;
50301;SDS011;36550;50.472;19.744;2022-09-24T16:10:54;37.03;;;17.20;;
50301;SDS011;36550;50.472;19.744;2022-09-24T16:13:39;22.32;;;13.48;;
50301;SDS011;36550;50.472;19.744;2022-09-24T16:16:23;29.48;;;13.53;;
50301;SDS011;36550;50.472;19.744;2022-09-24T16:19:07;20.43;;;11.22;;
50301;SDS011;36550;50.472;19.744;2022-09-24T16:21:51;22.15;;;12.03;;
50301;SDS011;36550;50.472;19.744;2022-09-24T16:24:36;24.15;;;12.53;;
50301;SDS011;36550;50.472;19.744;2022-09-24T16:27:20;45.60;;;21.05;;
50301;SDS011;36550;50.472;19.744;2022-09-24T16:30:05;21.05;;;11.43;;
50301;SDS011;36550;50.472;19.744;2022-09-24T16:32:50;18.75;;;9.15;;
50301;SDS011;36550;50.472;19.744;2022-09-24T16:35:35;13.62;;;7.78;;
50301;SDS011;36550;50.472;19.744;2022-09-24T16:38:19;15.78;;;7.83;;
50301;SDS011;36550;50.472;19.744;2022-09-24T16:41:03;19.00;;;10.40;;
50301;SDS011;36550;50.472;19.744;2022-09-24T16:46:39;89.97;;;45.65;;
50301;SDS011;36550;50.472;19.744;2022-09-24T16:49:27;107.70;;;55.48;;
50301;SDS011;36550;50.472;19.744;2022-09-24T16:52:11;50.12;;;25.92;;
50301;SDS011;36550;50.472;19.744;2022-09-24T16:54:56;51.00;;;24.43;;
50301;SDS011;36550;50.472;19.744;2022-09-24T16:57:40;45.95;;;24.50;;
50301;SDS011;36550;50.472;19.744;2022-09-24T17:00:24;32.67;;;17.37;;
50301;SDS011;36550;50.472;19.744;2022-09-24T17:03:09;36.17;;;15.10;;
50301;SDS011;36550;50.472;19.744;2022-09-24T17:05:54;29.42;;;11.85;;
50301;SDS011;36550;50.472;19.744;2022-09-24T17:08:38;22.85;;;10.80;;
50301;SDS011;36550;50.472;19.744;2022-09-24T17:11:41;20.48;;;11.50;;
50301;SDS011;36550;50.472;19.744;2022-09-24T17:14:25;27.52;;;17.27;;
50301;SDS011;36550;50.472;19.744;2022-09-24T17:17:09;35.60;;;22.37;;
50301;SDS011;36550;50.472;19.744;2022-09-24T17:19:53;29.32;;;16.00;;
50301;SDS011;36550;50.472;19.744;2022-09-24T17:22:38;21.35;;;12.00;;
50301;SDS011;36550;50.472;19.744;2022-09-24T17:25:22;21.42;;;11.88;;
50301;SDS011;36550;50.472;19.744;2022-09-24T17:28:07;20.37;;;11.45;;
50301;SDS011;36550;50.472;19.744;2022-09-24T17:33:37;21.42;;;11.53;;
50301;SDS011;36550;50.472;19.744;2022-09-24T17:36:24;26.20;;;13.33;;
50301;SDS011;36550;50.472;19.744;2022-09-24T17:39:11;25.37;;;12.90;;
50301;SDS011;36550;50.472;19.744;2022-09-24T17:41:56;26.93;;;14.80;;
50301;SDS011;36550;50.472;19.744;2022-09-24T17:44:40;29.15;;;15.03;;
50301;SDS011;36550;50.472;19.744;2022-09-24T17:47:25;31.35;;;16.45;;
50301;SDS011;36550;50.472;19.744;2022-09-24T17:50:11;31.05;;;17.48;;
50301;SDS011;36550;50.472;19.744;2022-09-24T17:52:56;41.05;;;19.02;;
50301;SDS011;36550;50.472;19.744;2022-09-24T17:55:46;36.40;;;19.63;;
50301;SDS011;36550;50.472;19.744;2022-09-24T17:58:37;37.58;;;18.40;;
50301;SDS011;36550;50.472;19.744;2022-09-24T18:01:25;32.13;;;17.20;;
50301;SDS011;36550;50.472;19.744;2022-09-24T18:04:12;32.08;;;16.67;;
50301;SDS011;36550;50.472;19.744;2022-09-24T18:06:59;34.23;;;16.27;;
50301;SDS011;36550;50.472;19.744;2022-09-24T18:09:43;37.35;;;18.87;;
50301;SDS011;36550;50.472;19.744;2022-09-24T18:12:28;38.38;;;20.05;;
50301;SDS011;36550;50.472;19.744;2022-09-24T18:15:12;38.90;;;20.55;;
50301;SDS011;36550;50.472;19.744;2022-09-24T18:17:56;61.08;;;28.20;;
50301;SDS011;36550;50.472;19.744;2022-09-24T18:20:41;68.97;;;33.13;;
50301;SDS011;36550;50.472;19.744;2022-09-24T18:23:25;76.57;;;37.50;;
50301;SDS011;36550;50.472;19.744;2022-09-24T18:26:12;67.40;;;32.15;;
50301;SDS011;36550;50.472;19.744;2022-09-24T18:29:00;68.70;;;31.90;;
50301;SDS011;36550;50.472;19.744;2022-09-24T18:31:51;62.93;;;29.80;;